createdAt,value
2017-11-14T00:00:24.819Z,0
2017-11-14T00:01:24.882Z,0
2017-11-14T00:02:24.883Z,0
2017-11-14T00:03:24.746Z,0
2017-11-14T00:04:24.715Z,0
2017-11-14T00:05:24.705Z,0
2017-11-14T00:06:24.780Z,0
2017-11-14T00:07:24.760Z,0
2017-11-14T00:08:24.813Z,0
2017-11-14T00:09:24.709Z,0
2017-11-14T00:10:24.714Z,0
2017-11-14T00:11:24.848Z,0
2017-11-14T00:12:24.703Z,0
2017-11-14T00:13:24.890Z,0
2017-11-14T00:14:24.887Z,0
2017-11-14T00:15:24.827Z,0
2017-11-14T00:16:24.890Z,0
2017-11-14T00:17:24.824Z,0
2017-11-14T00:18:24.822Z,0
2017-11-14T00:19:24.896Z,0
2017-11-14T00:20:24.944Z,0
2017-11-14T00:21:24.892Z,0
2017-11-14T00:22:24.828Z,0
2017-11-14T00:23:24.831Z,0
2017-11-14T00:24:24.895Z,0
2017-11-14T00:25:24.902Z,0
2017-11-14T00:26:24.860Z,0
2017-11-14T00:27:24.835Z,0
2017-11-14T00:28:24.898Z,0
2017-11-14T00:29:24.837Z,0
2017-11-14T00:30:24.900Z,0
2017-11-14T00:31:24.833Z,0
2017-11-14T00:32:24.902Z,0
2017-11-14T00:33:24.799Z,0
2017-11-14T00:34:24.756Z,0
2017-11-14T00:35:24.847Z,0
2017-11-14T00:36:24.853Z,0
2017-11-14T00:37:24.849Z,0
2017-11-14T00:38:24.849Z,0
2017-11-14T00:39:24.849Z,0
2017-11-14T00:40:24.850Z,0
2017-11-14T00:41:24.808Z,0
2017-11-14T00:42:24.804Z,0
2017-11-14T00:43:24.895Z,0
2017-11-14T00:44:24.809Z,0
2017-11-14T00:45:24.876Z,0
2017-11-14T00:46:24.818Z,0
2017-11-14T00:47:24.828Z,0
2017-11-14T00:48:24.776Z,0
2017-11-14T00:49:24.814Z,0
2017-11-14T00:50:24.893Z,0
2017-11-14T00:51:24.820Z,0
2017-11-14T00:52:24.850Z,0
2017-11-14T00:53:24.929Z,0
2017-11-14T00:54:24.849Z,0
2017-11-14T00:55:24.915Z,0
2017-11-14T00:56:24.852Z,0
2017-11-14T00:57:24.917Z,0
2017-11-14T00:58:24.854Z,0
2017-11-14T00:59:24.915Z,0
2017-11-14T01:00:24.848Z,0
2017-11-14T01:01:24.919Z,0
2017-11-14T01:02:24.856Z,0
2017-11-14T01:03:24.919Z,0
2017-11-14T01:04:24.852Z,0
2017-11-14T01:05:24.923Z,0
2017-11-14T01:06:24.923Z,0
2017-11-14T01:07:24.799Z,0
2017-11-14T01:08:24.925Z,0
2017-11-14T01:09:24.921Z,0
2017-11-14T01:10:24.856Z,0
2017-11-14T01:11:24.922Z,0
2017-11-14T01:12:24.858Z,0
2017-11-14T01:13:24.861Z,0
2017-11-14T01:14:24.926Z,0
2017-11-14T01:15:24.858Z,0
2017-11-14T01:16:24.926Z,0
2017-11-14T01:17:24.926Z,0
2017-11-14T01:18:24.895Z,0
2017-11-14T01:19:24.861Z,0
2017-11-14T01:20:24.930Z,0
2017-11-14T01:21:24.925Z,0
2017-11-14T01:22:24.892Z,0
2017-11-14T01:23:24.863Z,0
2017-11-14T01:24:24.933Z,0
2017-11-14T01:25:24.868Z,0
2017-11-14T01:26:24.930Z,0
2017-11-14T01:27:24.934Z,0
2017-11-14T01:28:24.866Z,0
2017-11-14T01:29:24.861Z,0
2017-11-14T01:30:24.936Z,0
2017-11-14T01:31:24.938Z,0
2017-11-14T01:32:24.869Z,0
2017-11-14T01:33:24.868Z,0
2017-11-14T01:34:24.882Z,0
2017-11-14T01:35:24.888Z,0
2017-11-14T01:36:24.951Z,0
2017-11-14T01:37:24.864Z,0
2017-11-14T01:38:24.872Z,0
2017-11-14T01:39:24.869Z,0
2017-11-14T01:40:24.825Z,0
2017-11-14T01:41:24.896Z,0
2017-11-14T01:42:24.931Z,0
2017-11-14T01:43:24.882Z,0
2017-11-14T01:44:24.944Z,0
2017-11-14T01:45:24.880Z,0
2017-11-14T01:46:24.876Z,0
2017-11-14T01:47:24.945Z,0
2017-11-14T01:48:24.949Z,0
2017-11-14T01:49:24.874Z,0
2017-11-14T01:50:24.886Z,0
2017-11-14T01:51:24.950Z,0
2017-11-14T01:52:24.882Z,0
2017-11-14T01:53:24.813Z,0
2017-11-14T01:54:24.914Z,0
2017-11-14T01:55:24.907Z,0
2017-11-14T01:56:24.820Z,0
2017-11-14T01:57:24.818Z,0
2017-11-14T01:58:24.913Z,0
2017-11-14T01:59:24.876Z,0
2017-11-14T02:00:24.839Z,0
2017-11-14T02:01:24.934Z,0
2017-11-14T02:02:24.814Z,0
2017-11-14T02:03:24.953Z,0
2017-11-14T02:04:24.886Z,0
2017-11-14T02:05:24.889Z,0
2017-11-14T02:06:24.959Z,0
2017-11-14T02:07:24.887Z,0
2017-11-14T02:08:24.955Z,0
2017-11-14T02:09:24.958Z,0
2017-11-14T02:10:24.959Z,0
2017-11-14T02:11:24.896Z,0
2017-11-14T02:12:24.959Z,0
2017-11-14T02:13:24.868Z,0
2017-11-14T02:14:24.870Z,0
2017-11-14T02:15:24.826Z,0
2017-11-14T02:16:24.826Z,0
2017-11-14T02:17:24.933Z,0
2017-11-14T02:18:24.898Z,0
2017-11-14T02:19:24.953Z,0
2017-11-14T02:20:25.021Z,0
2017-11-14T02:21:24.846Z,0
2017-11-14T02:22:24.953Z,0
2017-11-14T02:23:24.860Z,0
2017-11-14T02:24:24.909Z,0
2017-11-14T02:25:24.916Z,0
2017-11-14T02:26:24.865Z,0
2017-11-14T02:27:24.877Z,0
2017-11-14T02:28:24.921Z,0
2017-11-14T02:29:24.822Z,0
2017-11-14T02:30:24.872Z,0
2017-11-14T02:31:24.966Z,0
2017-11-14T02:32:24.897Z,0
2017-11-14T02:33:24.857Z,0
2017-11-14T02:34:24.882Z,0
2017-11-14T02:35:24.905Z,0
2017-11-14T02:36:24.830Z,0
2017-11-14T02:37:24.939Z,0
2017-11-14T02:38:24.904Z,0
2017-11-14T02:39:24.831Z,0
2017-11-14T02:40:24.926Z,0
2017-11-14T02:41:24.937Z,0
2017-11-14T02:42:24.958Z,0
2017-11-14T02:43:24.838Z,0
2017-11-14T02:44:24.890Z,0
2017-11-14T02:45:24.866Z,0
2017-11-14T02:46:24.871Z,0
2017-11-14T02:47:24.932Z,0
2017-11-14T02:48:24.982Z,0
2017-11-14T02:49:24.964Z,0
2017-11-14T02:50:24.852Z,0
2017-11-14T02:51:24.940Z,0
2017-11-14T02:52:24.842Z,0
2017-11-14T02:53:24.868Z,0
2017-11-14T02:54:24.915Z,0
2017-11-14T02:55:24.966Z,0
2017-11-14T02:56:24.984Z,0
2017-11-14T02:57:24.985Z,0
2017-11-14T02:58:24.918Z,0
2017-11-14T02:59:24.985Z,0
2017-11-14T03:00:24.914Z,0
2017-11-14T03:01:24.973Z,0
2017-11-14T03:02:24.914Z,0
2017-11-14T03:03:24.922Z,0
2017-11-14T03:04:24.930Z,0
2017-11-14T03:05:24.934Z,0
2017-11-14T03:06:24.993Z,0
2017-11-14T03:07:24.926Z,0
2017-11-14T03:08:24.993Z,0
2017-11-14T03:09:24.929Z,0
2017-11-14T03:10:24.994Z,0
2017-11-14T03:11:24.932Z,0
2017-11-14T03:12:24.928Z,0
2017-11-14T03:13:24.950Z,0
2017-11-14T03:14:25.013Z,0
2017-11-14T03:15:25.001Z,0
2017-11-14T03:16:24.997Z,0
2017-11-14T03:17:24.934Z,0
2017-11-14T03:18:25.001Z,0
2017-11-14T03:19:24.934Z,0
2017-11-14T03:20:25.000Z,0
2017-11-14T03:21:24.934Z,0
2017-11-14T03:22:25.001Z,0
2017-11-14T03:23:25.200Z,0
2017-11-14T03:24:24.905Z,0
2017-11-14T03:25:24.902Z,0
2017-11-14T03:26:24.873Z,0
2017-11-14T03:27:24.919Z,0
2017-11-14T03:28:24.955Z,0
2017-11-14T03:29:24.997Z,0
2017-11-14T03:30:25.005Z,0
2017-11-14T03:31:24.990Z,0
2017-11-14T03:32:24.901Z,0
2017-11-14T03:33:25.006Z,0
2017-11-14T03:34:25.008Z,0
2017-11-14T03:35:24.944Z,0
2017-11-14T03:36:25.013Z,0
2017-11-14T03:37:24.941Z,0
2017-11-14T03:38:25.013Z,0
2017-11-14T03:39:24.974Z,0
2017-11-14T03:40:24.948Z,0
2017-11-14T03:41:25.012Z,0
2017-11-14T03:42:24.950Z,0
2017-11-14T03:43:24.896Z,0
2017-11-14T03:44:24.960Z,0
2017-11-14T03:45:24.962Z,0
2017-11-14T03:46:24.915Z,0
2017-11-14T03:47:24.966Z,0
2017-11-14T03:48:24.916Z,0
2017-11-14T03:49:24.964Z,0
2017-11-14T03:50:24.960Z,0
2017-11-14T03:51:24.916Z,0
2017-11-14T03:52:24.871Z,0
2017-11-14T03:53:24.950Z,0
2017-11-14T03:54:24.886Z,0
2017-11-14T03:55:24.980Z,0
2017-11-14T03:56:24.945Z,0
2017-11-14T03:57:24.948Z,0
2017-11-14T03:58:25.008Z,0
2017-11-14T03:59:24.883Z,0
2017-11-14T04:00:24.880Z,0
2017-11-14T04:01:24.891Z,0
2017-11-14T04:02:24.961Z,0
2017-11-14T04:03:24.960Z,0
2017-11-14T04:04:24.933Z,0
2017-11-14T04:05:24.962Z,0
2017-11-14T04:06:24.937Z,0
2017-11-14T04:07:24.897Z,0
2017-11-14T04:08:25.048Z,0
2017-11-14T04:09:24.965Z,0
2017-11-14T04:10:25.025Z,0
2017-11-14T04:11:25.022Z,0
2017-11-14T04:12:25.022Z,0
2017-11-14T04:13:24.980Z,0
2017-11-14T04:14:24.993Z,0
2017-11-14T04:15:24.927Z,0
2017-11-14T04:16:24.923Z,0
2017-11-14T04:17:25.019Z,0
2017-11-14T04:18:24.902Z,0
2017-11-14T04:19:24.985Z,0
2017-11-14T04:20:24.924Z,0
2017-11-14T04:21:24.988Z,0
2017-11-14T04:22:24.925Z,0
2017-11-14T04:23:25.040Z,0
2017-11-14T04:24:24.998Z,0
2017-11-14T04:25:25.039Z,0
2017-11-14T04:26:24.973Z,0
2017-11-14T04:27:25.043Z,0
2017-11-14T04:28:25.048Z,0
2017-11-14T04:29:24.977Z,0
2017-11-14T04:30:25.042Z,0
2017-11-14T04:31:25.012Z,0
2017-11-14T04:32:24.975Z,0
2017-11-14T04:33:24.924Z,0
2017-11-14T04:34:25.038Z,0
2017-11-14T04:35:24.955Z,0
2017-11-14T04:36:25.030Z,0
2017-11-14T04:37:24.981Z,0
2017-11-14T04:38:24.929Z,0
2017-11-14T04:39:25.042Z,0
2017-11-14T04:40:24.931Z,0
2017-11-14T04:41:25.037Z,0
2017-11-14T04:42:24.975Z,0
2017-11-14T04:43:25.053Z,0
2017-11-14T04:44:24.988Z,0
2017-11-14T04:45:25.054Z,0
2017-11-14T04:46:24.982Z,0
2017-11-14T04:47:25.053Z,0
2017-11-14T04:48:25.055Z,0
2017-11-14T04:49:24.990Z,0
2017-11-14T04:50:24.995Z,0
2017-11-14T04:51:25.056Z,0
2017-11-14T04:52:24.990Z,0
2017-11-14T04:53:25.059Z,0
2017-11-14T04:54:24.993Z,0
2017-11-14T04:55:25.058Z,0
2017-11-14T04:56:24.992Z,0
2017-11-14T04:57:24.951Z,0
2017-11-14T04:58:24.994Z,0
2017-11-14T04:59:24.993Z,0
2017-11-14T05:00:25.062Z,0
2017-11-14T05:01:25.060Z,0
2017-11-14T05:02:25.001Z,0
2017-11-14T05:03:24.924Z,0
2017-11-14T05:04:25.022Z,0
2017-11-14T05:05:24.973Z,0
2017-11-14T05:06:25.061Z,0
2017-11-14T05:07:24.999Z,0
2017-11-14T05:08:25.052Z,0
2017-11-14T05:09:25.030Z,0
2017-11-14T05:10:24.989Z,0
2017-11-14T05:11:24.967Z,0
2017-11-14T05:12:25.025Z,0
2017-11-14T05:13:24.934Z,0
2017-11-14T05:14:24.959Z,0
2017-11-14T05:15:25.019Z,0
2017-11-14T05:16:25.009Z,0
2017-11-14T05:17:24.928Z,0
2017-11-14T05:18:25.038Z,0
2017-11-14T05:19:25.033Z,0
2017-11-14T05:20:25.035Z,0
2017-11-14T05:21:24.955Z,0
2017-11-14T05:22:24.968Z,0
2017-11-14T05:23:25.075Z,0
2017-11-14T05:24:25.078Z,0
2017-11-14T05:25:25.006Z,0
2017-11-14T05:26:25.080Z,0
2017-11-14T05:27:25.020Z,0
2017-11-14T05:28:25.033Z,0
2017-11-14T05:29:25.080Z,0
2017-11-14T05:30:25.018Z,0
2017-11-14T05:31:25.081Z,0
2017-11-14T05:32:25.081Z,0
2017-11-14T05:33:25.014Z,0
2017-11-14T05:34:25.081Z,0
2017-11-14T05:35:25.023Z,0
2017-11-14T05:36:25.038Z,0
2017-11-14T05:37:25.086Z,0
2017-11-14T05:38:25.084Z,0
2017-11-14T05:39:25.048Z,0
2017-11-14T05:40:25.022Z,0
2017-11-14T05:41:25.087Z,0
2017-11-14T05:42:25.023Z,0
2017-11-14T05:43:25.024Z,0
2017-11-14T05:44:25.088Z,0
2017-11-14T05:45:25.030Z,0
2017-11-14T05:46:25.090Z,0
2017-11-14T05:47:25.092Z,0
2017-11-14T05:48:25.093Z,0
2017-11-14T05:49:25.092Z,0
2017-11-14T05:50:25.029Z,0
2017-11-14T05:51:25.090Z,0
2017-11-14T05:52:25.027Z,0
2017-11-14T05:53:24.944Z,0
2017-11-14T05:54:24.998Z,0
2017-11-14T05:55:24.902Z,0
2017-11-14T05:56:25.003Z,0
2017-11-14T05:57:24.909Z,0
2017-11-14T05:58:24.945Z,0
2017-11-14T05:59:24.995Z,0
2017-11-14T06:00:24.912Z,0
2017-11-14T06:01:24.994Z,0
2017-11-14T06:02:24.910Z,0
2017-11-14T06:03:24.971Z,0
2017-11-14T06:04:25.066Z,0
2017-11-14T06:05:25.064Z,0
2017-11-14T06:06:25.026Z,0
2017-11-14T06:07:24.987Z,0
2017-11-14T06:08:24.962Z,0
2017-11-14T06:09:25.037Z,0
2017-11-14T06:10:25.030Z,0
2017-11-14T06:11:24.993Z,0
2017-11-14T06:12:25.091Z,0
2017-11-14T06:13:25.066Z,0
2017-11-14T06:14:25.238Z,0
2017-11-14T06:15:25.044Z,0
2017-11-14T06:16:25.111Z,0
2017-11-14T06:17:25.110Z,0
2017-11-14T06:18:25.046Z,0
2017-11-14T06:19:25.112Z,0
2017-11-14T06:20:25.046Z,0
2017-11-14T06:21:25.110Z,0
2017-11-14T06:22:25.045Z,0
2017-11-14T06:23:25.113Z,0
2017-11-14T06:24:25.111Z,0
2017-11-14T06:25:25.119Z,0
2017-11-14T06:26:25.044Z,0
2017-11-14T06:27:25.112Z,0
2017-11-14T06:28:25.114Z,0
2017-11-14T06:29:25.049Z,0
2017-11-14T06:30:25.116Z,0
2017-11-14T06:31:25.052Z,0
2017-11-14T06:32:25.116Z,0
2017-11-14T06:33:25.050Z,0
2017-11-14T06:34:25.113Z,0
2017-11-14T06:35:25.056Z,0
2017-11-14T06:36:25.123Z,0
2017-11-14T06:37:25.119Z,0
2017-11-14T06:38:25.056Z,0
2017-11-14T06:39:25.119Z,0
2017-11-14T06:40:25.055Z,0
2017-11-14T06:41:25.011Z,0
2017-11-14T06:42:25.132Z,0
2017-11-14T06:43:25.057Z,0
2017-11-14T06:44:25.121Z,0
2017-11-14T06:45:25.055Z,0
2017-11-14T06:46:25.096Z,0
2017-11-14T06:47:25.129Z,0
2017-11-14T06:48:25.071Z,0
2017-11-14T06:49:25.130Z,0
2017-11-14T06:50:25.065Z,0
2017-11-14T06:51:25.125Z,0
2017-11-14T06:52:25.066Z,0
2017-11-14T06:53:25.062Z,0
2017-11-14T06:54:25.128Z,0
2017-11-14T06:55:25.060Z,0
2017-11-14T06:56:25.129Z,0
2017-11-14T06:57:25.062Z,0
2017-11-14T06:58:25.341Z,0
2017-11-14T06:59:25.064Z,0
2017-11-14T07:00:25.134Z,0
2017-11-14T07:01:25.069Z,0
2017-11-14T07:02:25.135Z,0
2017-11-14T07:03:25.106Z,0
2017-11-14T07:04:25.074Z,0
2017-11-14T07:05:25.141Z,0
2017-11-14T07:06:25.069Z,0
2017-11-14T07:07:25.081Z,0
2017-11-14T07:08:25.137Z,0
2017-11-14T07:09:25.137Z,0
2017-11-14T07:10:25.070Z,0
2017-11-14T07:11:25.141Z,0
2017-11-14T07:12:25.074Z,13
2017-11-14T07:13:25.142Z,16
2017-11-14T07:14:25.002Z,17
2017-11-14T07:15:25.065Z,18
2017-11-14T07:16:25.000Z,19
2017-11-14T07:17:25.098Z,19
2017-11-14T07:18:25.094Z,20
2017-11-14T07:19:25.080Z,21
2017-11-14T07:20:25.124Z,22
2017-11-14T07:21:25.097Z,24
2017-11-14T07:22:25.014Z,27
2017-11-14T07:23:25.031Z,29
2017-11-14T07:24:25.152Z,34
2017-11-14T07:25:25.076Z,41
2017-11-14T07:26:25.147Z,49
2017-11-14T07:27:25.083Z,62
2017-11-14T07:28:25.151Z,73
2017-11-14T07:29:25.150Z,79
2017-11-14T07:30:25.076Z,83
2017-11-14T07:31:25.154Z,88
2017-11-14T07:32:25.085Z,90
2017-11-14T07:33:25.152Z,92
2017-11-14T07:34:25.045Z,95
2017-11-14T07:35:25.083Z,96
2017-11-14T07:36:25.041Z,96
2017-11-14T07:37:25.115Z,89
2017-11-14T07:38:25.063Z,64
2017-11-14T07:39:25.092Z,60
2017-11-14T07:40:25.075Z,57
2017-11-14T07:41:25.048Z,54
2017-11-14T07:42:25.051Z,52
2017-11-14T07:43:25.100Z,49
2017-11-14T07:44:25.160Z,49
2017-11-14T07:45:25.099Z,51
2017-11-14T07:46:25.161Z,55
2017-11-14T07:47:25.097Z,57
2017-11-14T07:48:25.161Z,58
2017-11-14T07:49:25.098Z,59
2017-11-14T07:50:25.162Z,59
2017-11-14T07:51:25.141Z,58
2017-11-14T07:52:25.100Z,58
2017-11-14T07:53:25.165Z,58
2017-11-14T07:54:25.166Z,61
2017-11-14T07:55:25.101Z,64
2017-11-14T07:56:25.168Z,64
2017-11-14T07:57:25.099Z,69
2017-11-14T07:58:25.167Z,72
2017-11-14T07:59:25.205Z,75
2017-11-14T08:00:25.169Z,81
2017-11-14T08:01:25.102Z,87
2017-11-14T08:02:25.110Z,90
2017-11-14T08:03:25.170Z,87
2017-11-14T08:04:25.066Z,81
2017-11-14T08:05:25.154Z,74
2017-11-14T08:06:25.104Z,66
2017-11-14T08:07:25.086Z,60
2017-11-14T08:08:25.068Z,56
2017-11-14T08:09:25.153Z,58
2017-11-14T08:10:25.071Z,61
2017-11-14T08:11:25.101Z,63
2017-11-14T08:12:25.129Z,67
2017-11-14T08:13:25.139Z,70
2017-11-14T08:14:25.113Z,76
2017-11-14T08:15:25.179Z,82
2017-11-14T08:16:25.114Z,92
2017-11-14T08:17:25.182Z,99
2017-11-14T08:18:25.137Z,108
2017-11-14T08:19:25.185Z,113
2017-11-14T08:20:25.116Z,117
2017-11-14T08:21:25.183Z,118
2017-11-14T08:22:25.144Z,123
2017-11-14T08:23:25.184Z,127
2017-11-14T08:24:25.080Z,130
2017-11-14T08:25:25.113Z,129
2017-11-14T08:26:25.112Z,125
2017-11-14T08:27:25.107Z,119
2017-11-14T08:28:25.112Z,115
2017-11-14T08:29:25.075Z,109
2017-11-14T08:30:25.151Z,101
2017-11-14T08:31:25.136Z,94
2017-11-14T08:32:25.157Z,90
2017-11-14T08:33:25.075Z,85
2017-11-14T08:34:25.121Z,89
2017-11-14T08:35:25.189Z,93
2017-11-14T08:36:25.189Z,95
2017-11-14T08:37:25.143Z,93
2017-11-14T08:38:25.191Z,90
2017-11-14T08:39:25.191Z,90
2017-11-14T08:40:25.123Z,89
2017-11-14T08:41:25.193Z,89
2017-11-14T08:42:25.124Z,88
2017-11-14T08:43:25.192Z,85
2017-11-14T08:44:25.125Z,83
2017-11-14T08:45:25.196Z,86
2017-11-14T08:46:25.131Z,91
2017-11-14T08:47:25.196Z,97
2017-11-14T08:48:25.125Z,100
2017-11-14T08:49:25.196Z,104
2017-11-14T08:50:25.200Z,104
2017-11-14T08:51:25.212Z,128
2017-11-14T08:52:25.147Z,139
2017-11-14T08:53:25.200Z,143
2017-11-14T08:54:25.126Z,199
2017-11-14T08:55:25.178Z,170
2017-11-14T08:56:25.178Z,191
2017-11-14T08:57:25.146Z,223
2017-11-14T08:58:25.094Z,201
2017-11-14T08:59:25.057Z,260
2017-11-14T09:00:25.057Z,234
2017-11-14T09:01:25.111Z,162
2017-11-14T09:02:25.166Z,175
2017-11-14T09:03:25.160Z,199
2017-11-14T09:04:25.206Z,204
2017-11-14T09:05:25.136Z,236
2017-11-14T09:06:25.207Z,296
2017-11-14T09:07:25.142Z,282
2017-11-14T09:08:25.211Z,289
2017-11-14T09:09:25.137Z,296
2017-11-14T09:10:25.151Z,321
2017-11-14T09:11:25.211Z,441
2017-11-14T09:12:25.142Z,440
2017-11-14T09:13:25.213Z,472
2017-11-14T09:14:25.197Z,496
2017-11-14T09:15:25.127Z,485
2017-11-14T09:16:25.212Z,430
2017-11-14T09:17:25.209Z,414
2017-11-14T09:18:25.204Z,319
2017-11-14T09:19:25.197Z,251
2017-11-14T09:20:25.199Z,223
2017-11-14T09:21:25.119Z,227
2017-11-14T09:22:25.426Z,242
2017-11-14T09:23:25.216Z,238
2017-11-14T09:24:25.157Z,269
2017-11-14T09:25:25.116Z,268
2017-11-14T09:26:25.158Z,225
2017-11-14T09:27:25.119Z,263
2017-11-14T09:28:25.116Z,278
2017-11-14T09:29:25.162Z,285
2017-11-14T09:30:25.209Z,278
2017-11-14T09:31:25.217Z,317
2017-11-14T09:32:25.159Z,250
2017-11-14T09:33:25.141Z,288
2017-11-14T09:34:25.174Z,342
2017-11-14T09:35:25.176Z,368
2017-11-14T09:36:25.172Z,399
2017-11-14T09:37:25.226Z,406
2017-11-14T09:38:25.213Z,334
2017-11-14T09:39:25.111Z,279
2017-11-14T09:40:25.138Z,272
2017-11-14T09:41:25.112Z,279
2017-11-14T09:42:25.219Z,285
2017-11-14T09:43:25.117Z,279
2017-11-14T09:44:25.159Z,274
2017-11-14T09:45:25.232Z,275
2017-11-14T09:46:25.162Z,243
2017-11-14T09:47:25.232Z,221
2017-11-14T09:48:25.162Z,219
2017-11-14T09:49:25.234Z,217
2017-11-14T09:50:25.162Z,210
2017-11-14T09:51:25.236Z,207
2017-11-14T09:52:25.235Z,214
2017-11-14T09:53:25.162Z,211
2017-11-14T09:54:25.140Z,206
2017-11-14T09:55:25.113Z,194
2017-11-14T09:56:25.160Z,184
2017-11-14T09:57:25.180Z,173
2017-11-14T09:58:25.236Z,176
2017-11-14T09:59:25.146Z,165
2017-11-14T10:00:25.243Z,151
2017-11-14T10:01:25.119Z,145
2017-11-14T10:02:25.238Z,146
2017-11-14T10:03:25.232Z,148
2017-11-14T10:04:25.226Z,150
2017-11-14T10:05:25.154Z,154
2017-11-14T10:06:25.184Z,150
2017-11-14T10:07:25.179Z,142
2017-11-14T10:08:25.124Z,132
2017-11-14T10:09:25.190Z,129
2017-11-14T10:10:25.151Z,135
2017-11-14T10:11:25.236Z,138
2017-11-14T10:12:25.195Z,139
2017-11-14T10:13:25.154Z,139
2017-11-14T10:14:25.215Z,137
2017-11-14T10:15:25.179Z,137
2017-11-14T10:16:25.182Z,138
2017-11-14T10:17:25.277Z,138
2017-11-14T10:18:25.182Z,135
2017-11-14T10:19:25.252Z,134
2017-11-14T10:20:25.180Z,133
2017-11-14T10:21:25.183Z,130
2017-11-14T10:22:25.139Z,122
2017-11-14T10:23:25.186Z,109
2017-11-14T10:24:25.223Z,101
2017-11-14T10:25:25.245Z,102
2017-11-14T10:26:25.229Z,101
2017-11-14T10:27:25.181Z,103
2017-11-14T10:28:25.119Z,104
2017-11-14T10:29:25.224Z,94
2017-11-14T10:30:25.202Z,89
2017-11-14T10:31:25.139Z,80
2017-11-14T10:32:25.259Z,77
2017-11-14T10:33:25.166Z,83
2017-11-14T10:34:25.279Z,87
2017-11-14T10:35:25.202Z,83
2017-11-14T10:36:25.263Z,77
2017-11-14T10:37:25.196Z,79
2017-11-14T10:38:25.264Z,84
2017-11-14T10:39:25.202Z,87
2017-11-14T10:40:25.267Z,87
2017-11-14T10:41:25.203Z,84
2017-11-14T10:42:25.265Z,92
2017-11-14T10:43:25.199Z,101
2017-11-14T10:44:25.201Z,114
2017-11-14T10:45:25.268Z,113
2017-11-14T10:46:25.199Z,114
2017-11-14T10:47:25.271Z,125
2017-11-14T10:48:25.202Z,128
2017-11-14T10:49:25.270Z,129
2017-11-14T10:50:25.271Z,122
2017-11-14T10:51:25.203Z,122
2017-11-14T10:52:25.209Z,128
2017-11-14T10:53:25.205Z,118
2017-11-14T10:54:25.268Z,102
2017-11-14T10:55:25.273Z,84
2017-11-14T10:56:25.206Z,78
2017-11-14T10:57:25.277Z,74
2017-11-14T10:58:25.208Z,67
2017-11-14T10:59:25.274Z,59
2017-11-14T11:00:25.208Z,52
2017-11-14T11:01:25.279Z,53
2017-11-14T11:02:25.207Z,61
2017-11-14T11:03:25.281Z,73
2017-11-14T11:04:25.277Z,83
2017-11-14T11:05:25.219Z,94
2017-11-14T11:06:25.205Z,108
2017-11-14T11:07:25.220Z,121
2017-11-14T11:08:25.182Z,118
2017-11-14T11:09:25.204Z,123
2017-11-14T11:10:25.178Z,135
2017-11-14T11:11:25.226Z,136
2017-11-14T11:12:25.164Z,138
2017-11-14T11:13:25.211Z,115
2017-11-14T11:14:25.229Z,137
2017-11-14T11:15:25.210Z,139
2017-11-14T11:16:25.219Z,130
2017-11-14T11:17:25.288Z,127
2017-11-14T11:18:25.189Z,124
2017-11-14T11:19:25.211Z,132
2017-11-14T11:20:25.213Z,123
2017-11-14T11:21:25.275Z,127
2017-11-14T11:22:25.225Z,126
2017-11-14T11:23:25.212Z,115
2017-11-14T11:24:25.217Z,101
2017-11-14T11:25:25.307Z,96
2017-11-14T11:26:25.225Z,111
2017-11-14T11:27:25.294Z,141
2017-11-14T11:28:25.227Z,153
2017-11-14T11:29:25.300Z,132
2017-11-14T11:30:25.225Z,134
2017-11-14T11:31:25.296Z,134
2017-11-14T11:32:25.228Z,168
2017-11-14T11:33:25.311Z,195
2017-11-14T11:34:25.240Z,215
2017-11-14T11:35:25.267Z,206
2017-11-14T11:36:25.238Z,230
2017-11-14T11:37:25.242Z,240
2017-11-14T11:38:25.211Z,286
2017-11-14T11:39:25.181Z,295
2017-11-14T11:40:25.250Z,292
2017-11-14T11:41:25.256Z,274
2017-11-14T11:42:25.185Z,183
2017-11-14T11:43:25.229Z,153
2017-11-14T11:44:25.302Z,121
2017-11-14T11:45:25.239Z,121
2017-11-14T11:46:25.304Z,143
2017-11-14T11:47:25.245Z,205
2017-11-14T11:48:25.235Z,217
2017-11-14T11:49:25.307Z,235
2017-11-14T11:50:25.309Z,273
2017-11-14T11:51:25.252Z,563
2017-11-14T11:52:25.308Z,437
2017-11-14T11:53:25.242Z,339
2017-11-14T11:54:25.297Z,416
2017-11-14T11:55:25.250Z,347
2017-11-14T11:56:25.183Z,328
2017-11-14T11:57:25.251Z,509
2017-11-14T11:58:25.216Z,314
2017-11-14T11:59:25.316Z,201
2017-11-14T12:00:25.234Z,186
2017-11-14T12:01:25.214Z,167
2017-11-14T12:02:25.259Z,185
2017-11-14T12:03:25.254Z,204
2017-11-14T12:04:25.217Z,223
2017-11-14T12:05:25.241Z,254
2017-11-14T12:06:25.273Z,193
2017-11-14T12:07:25.337Z,182
2017-11-14T12:08:25.296Z,200
2017-11-14T12:09:25.288Z,224
2017-11-14T12:10:25.268Z,239
2017-11-14T12:11:25.203Z,240
2017-11-14T12:12:25.268Z,229
2017-11-14T12:13:25.248Z,218
2017-11-14T12:14:25.180Z,201
2017-11-14T12:15:25.315Z,205
2017-11-14T12:16:25.288Z,199
2017-11-14T12:17:25.281Z,201
2017-11-14T12:18:25.285Z,193
2017-11-14T12:19:25.227Z,174
2017-11-14T12:20:25.202Z,167
2017-11-14T12:21:25.324Z,187
2017-11-14T12:22:25.233Z,193
2017-11-14T12:23:25.206Z,200
2017-11-14T12:24:25.251Z,208
2017-11-14T12:25:25.261Z,221
2017-11-14T12:26:25.335Z,227
2017-11-14T12:27:25.261Z,229
2017-11-14T12:28:25.329Z,240
2017-11-14T12:29:25.388Z,244
2017-11-14T12:30:25.331Z,225
2017-11-14T12:31:25.261Z,193
2017-11-14T12:32:25.333Z,173
2017-11-14T12:33:25.262Z,155
2017-11-14T12:34:25.332Z,125
2017-11-14T12:35:25.335Z,114
2017-11-14T12:36:25.266Z,111
2017-11-14T12:37:25.266Z,115
2017-11-14T12:38:25.343Z,119
2017-11-14T12:39:25.262Z,138
2017-11-14T12:40:25.339Z,132
2017-11-14T12:41:25.266Z,141
2017-11-14T12:42:25.270Z,126
2017-11-14T12:43:25.325Z,120
2017-11-14T12:44:25.268Z,124
2017-11-14T12:45:25.336Z,132
2017-11-14T12:46:25.268Z,133
2017-11-14T12:47:25.342Z,134
2017-11-14T12:48:25.275Z,142
2017-11-14T12:49:25.341Z,157
2017-11-14T12:50:25.274Z,159
2017-11-14T12:51:25.345Z,159
2017-11-14T12:52:25.271Z,160
2017-11-14T12:53:25.346Z,166
2017-11-14T12:54:25.276Z,162
2017-11-14T12:55:25.346Z,164
2017-11-14T12:56:25.278Z,147
2017-11-14T12:57:25.346Z,139
2017-11-14T12:58:25.281Z,139
2017-11-14T12:59:25.348Z,157
2017-11-14T13:00:25.349Z,169
2017-11-14T13:01:25.280Z,173
2017-11-14T13:02:25.350Z,162
2017-11-14T13:03:25.281Z,142
2017-11-14T13:04:25.365Z,129
2017-11-14T13:05:25.288Z,113
2017-11-14T13:06:25.355Z,105
2017-11-14T13:07:25.289Z,99
2017-11-14T13:08:25.353Z,101
2017-11-14T13:09:25.288Z,103
2017-11-14T13:10:25.286Z,104
2017-11-14T13:11:25.356Z,111
2017-11-14T13:12:25.318Z,116
2017-11-14T13:13:25.357Z,113
2017-11-14T13:14:25.288Z,110
2017-11-14T13:15:25.297Z,113
2017-11-14T13:16:25.355Z,124
2017-11-14T13:17:25.290Z,130
2017-11-14T13:18:25.290Z,126
2017-11-14T13:19:25.292Z,114
2017-11-14T13:20:25.362Z,104
2017-11-14T13:21:25.360Z,99
2017-11-14T13:22:25.361Z,98
2017-11-14T13:23:25.286Z,99
2017-11-14T13:24:25.362Z,94
2017-11-14T13:25:25.295Z,89
2017-11-14T13:26:25.365Z,86
2017-11-14T13:27:25.317Z,86
2017-11-14T13:28:25.363Z,88
2017-11-14T13:29:25.297Z,89
2017-11-14T13:30:25.367Z,86
2017-11-14T13:31:25.297Z,85
2017-11-14T13:32:25.367Z,87
2017-11-14T13:33:25.298Z,91
2017-11-14T13:34:25.374Z,93
2017-11-14T13:35:25.275Z,97
2017-11-14T13:36:25.252Z,109
2017-11-14T13:37:25.298Z,119
2017-11-14T13:38:25.300Z,125
2017-11-14T13:39:25.354Z,126
2017-11-14T13:40:25.237Z,120
2017-11-14T13:41:25.298Z,110
2017-11-14T13:42:25.270Z,102
2017-11-14T13:43:25.275Z,94
2017-11-14T13:44:25.256Z,88
2017-11-14T13:45:25.280Z,82
2017-11-14T13:46:25.253Z,76
2017-11-14T13:47:25.253Z,73
2017-11-14T13:48:25.196Z,70
2017-11-14T13:49:25.285Z,72
2017-11-14T13:50:25.281Z,79
2017-11-14T13:51:25.247Z,84
2017-11-14T13:52:25.256Z,86
2017-11-14T13:53:25.245Z,84
2017-11-14T13:54:25.239Z,83
2017-11-14T13:55:25.342Z,82
2017-11-14T13:56:25.326Z,83
2017-11-14T13:57:25.236Z,89
2017-11-14T13:58:25.362Z,93
2017-11-14T13:59:25.276Z,89
2017-11-14T14:00:25.321Z,85
2017-11-14T14:01:25.320Z,86
2017-11-14T14:02:25.295Z,86
2017-11-14T14:03:25.256Z,96
2017-11-14T14:04:25.255Z,97
2017-11-14T14:05:25.311Z,91
2017-11-14T14:06:25.301Z,75
2017-11-14T14:07:25.377Z,62
2017-11-14T14:08:25.298Z,65
2017-11-14T14:09:25.268Z,62
2017-11-14T14:10:25.310Z,57
2017-11-14T14:11:25.336Z,52
2017-11-14T14:12:25.397Z,50
2017-11-14T14:13:25.266Z,50
2017-11-14T14:14:25.320Z,53
2017-11-14T14:15:25.339Z,54
2017-11-14T14:16:25.360Z,56
2017-11-14T14:17:25.247Z,56
2017-11-14T14:18:25.250Z,53
2017-11-14T14:19:25.279Z,49
2017-11-14T14:20:25.347Z,44
2017-11-14T14:21:25.283Z,42